Time;durP1;ratioP1;P1;durP2;ratioP2;P2;SDS_P1;SDS_P2;PMS_P1;PMS_P2;Temp;Humidity;BMP_temperature;BMP_pressure;BME280_temperature;BME280_humidity;BME280_pressure;Samples;Min_cycle;Max_cycle;Signal;HPM_P1;HPM_P2
2021/05/15 00:00:45;;;;;;;5.80;5.37;;;10.10;99.90;;;;;;5077759;28;20681;-77
2021/05/15 00:03:11;;;;;;;5.80;5.40;;;10.10;99.90;;;;;;5073110;28;20202;-78
2021/05/15 00:05:38;;;;;;;5.83;5.40;;;10.10;99.90;;;;;;5077437;28;20214;-77
2021/05/15 00:08:05;;;;;;;6.57;6.07;;;10.10;99.90;;;;;;5073481;28;20244;-78
2021/05/15 00:10:32;;;;;;;6.40;5.80;;;10.10;99.90;;;;;;5070963;28;20226;-77
2021/05/15 00:12:58;;;;;;;5.80;5.40;;;10.10;99.90;;;;;;5071535;28;20212;-78
2021/05/15 00:15:27;;;;;;;6.33;5.93;;;10.00;99.90;;;;;;5076197;28;20217;-77
2021/05/15 00:17:53;;;;;;;6.30;5.70;;;10.00;99.90;;;;;;5068228;28;20244;-77
2021/05/15 00:20:20;;;;;;;3.50;2.47;;;10.00;99.90;;;;;;5076982;28;20229;-77
2021/05/15 00:22:47;;;;;;;3.90;3.70;;;9.90;99.90;;;;;;5078060;28;20225;-77
2021/05/15 00:25:15;;;;;;;2.27;2.13;;;9.90;99.90;;;;;;5074198;28;20194;-77
2021/05/15 00:27:42;;;;;;;5.30;2.87;;;9.90;99.90;;;;;;5070816;28;20230;-77
2021/05/15 00:30:11;;;;;;;3.07;2.80;;;9.90;99.90;;;;;;5072772;28;20240;-77
2021/05/15 00:32:39;;;;;;;3.60;3.30;;;9.90;99.90;;;;;;5075774;28;20206;-76
2021/05/15 00:35:06;;;;;;;4.37;4.07;;;9.80;99.90;;;;;;5071854;28;20210;-77
2021/05/15 00:37:33;;;;;;;6.30;5.80;;;9.80;99.90;;;;;;5076022;28;20735;-77
2021/05/15 00:39:59;;;;;;;6.20;5.77;;;9.80;99.90;;;;;;5071308;28;20223;-77
2021/05/15 00:42:26;;;;;;;5.97;5.60;;;9.70;99.90;;;;;;5076946;28;20194;-78
2021/05/15 00:44:52;;;;;;;6.20;5.80;;;9.60;99.90;;;;;;5077534;28;20209;-77
2021/05/15 00:47:20;;;;;;;6.50;5.90;;;9.50;99.90;;;;;;5073169;28;20214;-76
2021/05/15 00:49:48;;;;;;;6.73;6.20;;;9.60;99.90;;;;;;5078678;28;20304;-77
2021/05/15 00:52:15;;;;;;;7.07;6.40;;;9.60;99.90;;;;;;5072011;28;20664;-77
2021/05/15 00:54:42;;;;;;;6.00;5.50;;;9.50;99.90;;;;;;5075835;28;20205;-77
2021/05/15 00:57:10;;;;;;;6.13;5.73;;;9.50;99.90;;;;;;5071408;28;20202;-77
2021/05/15 00:59:38;;;;;;;6.47;6.00;;;9.40;99.90;;;;;;5076121;28;20268;-77
2021/05/15 01:02:06;;;;;;;6.40;6.00;;;9.40;99.90;;;;;;5067156;28;20206;-77
2021/05/15 01:04:32;;;;;;;6.23;5.83;;;9.30;99.90;;;;;;5067589;28;20680;-77
2021/05/15 01:07:01;;;;;;;6.30;5.90;;;9.30;99.90;;;;;;5068821;28;20323;-78
2021/05/15 01:09:28;;;;;;;6.20;5.80;;;9.20;99.90;;;;;;5072013;28;20224;-78
2021/05/15 01:11:54;;;;;;;6.30;5.90;;;9.20;99.90;;;;;;5078148;28;20271;-77
2021/05/15 01:14:21;;;;;;;6.23;5.83;;;9.20;99.90;;;;;;5066342;28;20208;-77
2021/05/15 01:16:49;;;;;;;6.10;5.70;;;9.20;99.90;;;;;;5078305;28;20641;-78
2021/05/15 01:19:16;;;;;;;6.30;5.90;;;9.20;99.90;;;;;;5067298;28;20618;-77
2021/05/15 01:21:43;;;;;;;6.10;5.70;;;9.20;99.90;;;;;;5072445;28;20196;-77
2021/05/15 01:24:10;;;;;;;5.97;5.67;;;9.20;99.90;;;;;;5074747;28;20201;-77
2021/05/15 01:26:36;;;;;;;6.03;5.67;;;9.10;99.90;;;;;;5071100;28;20216;-77
2021/05/15 01:29:05;;;;;;;6.30;5.80;;;9.10;99.90;;;;;;5069680;28;20610;-78
2021/05/15 01:31:32;;;;;;;5.70;5.40;;;9.10;99.90;;;;;;5077316;28;20205;-77
2021/05/15 01:33:58;;;;;;;6.03;5.63;;;9.10;99.90;;;;;;5064204;28;20680;-77
2021/05/15 01:36:26;;;;;;;6.30;5.90;;;9.00;99.90;;;;;;5065920;28;20204;-76
2021/05/15 01:38:53;;;;;;;6.50;6.10;;;9.00;99.90;;;;;;5071012;28;20224;-77
2021/05/15 01:41:21;;;;;;;6.23;5.83;;;9.00;99.90;;;;;;5073375;28;20201;-77
2021/05/15 01:43:48;;;;;;;6.10;5.80;;;9.00;99.90;;;;;;5071682;28;20205;-77
2021/05/15 01:46:15;;;;;;;6.20;5.80;;;9.00;99.90;;;;;;5068083;28;20273;-77
2021/05/15 01:48:42;;;;;;;6.20;5.83;;;9.00;99.90;;;;;;5071612;28;20227;-77
2021/05/15 01:51:10;;;;;;;6.60;6.20;;;9.00;99.90;;;;;;5062821;28;20553;-77
2021/05/15 01:53:38;;;;;;;6.47;6.00;;;8.90;99.90;;;;;;5065358;28;20299;-77
2021/05/15 01:56:08;;;;;;;6.27;5.87;;;8.90;99.90;;;;;;5068168;28;20256;-77
2021/05/15 01:58:34;;;;;;;6.50;6.00;;;8.90;99.90;;;;;;5080285;28;20213;-77
2021/05/15 02:01:01;;;;;;;6.53;6.13;;;8.90;99.90;;;;;;5085857;28;20211;-77
2021/05/15 02:03:28;;;;;;;7.43;6.90;;;8.80;99.90;;;;;;5077009;28;20749;-77
2021/05/15 02:05:55;;;;;;;6.77;6.27;;;8.80;99.90;;;;;;5076106;28;20223;-77
2021/05/15 02:08:22;;;;;;;6.80;6.40;;;8.70;99.90;;;;;;5067557;28;20216;-77
2021/05/15 02:10:50;;;;;;;6.50;6.10;;;8.60;99.90;;;;;;5077076;28;20234;-77
2021/05/15 02:13:18;;;;;;;6.67;6.27;;;8.60;99.90;;;;;;5066085;28;20199;-76
2021/05/15 02:15:45;;;;;;;6.33;5.93;;;8.60;99.90;;;;;;5070383;28;20285;-78
2021/05/15 02:18:12;;;;;;;6.17;5.87;;;8.50;99.90;;;;;;5071732;28;20208;-77
2021/05/15 02:20:39;;;;;;;6.67;6.27;;;8.50;99.90;;;;;;5070589;22;20282;-76
2021/05/15 02:23:05;;;;;;;6.37;5.97;;;8.50;99.90;;;;;;5065946;28;20651;-77
2021/05/15 02:25:32;;;;;;;6.20;5.80;;;8.50;99.90;;;;;;5048820;28;20225;-77
2021/05/15 02:27:58;;;;;;;6.87;6.37;;;8.50;99.90;;;;;;5068701;28;20189;-77
2021/05/15 02:30:27;;;;;;;7.60;7.00;;;8.40;99.90;;;;;;5062673;28;20300;-77
2021/05/15 02:32:54;;;;;;;7.03;6.53;;;8.40;99.90;;;;;;5070486;28;20199;-77
2021/05/15 02:35:20;;;;;;;6.87;6.27;;;8.40;99.90;;;;;;5053142;28;20214;-77
2021/05/15 02:37:47;;;;;;;7.00;6.50;;;8.30;99.90;;;;;;5079934;28;20194;-77
2021/05/15 02:40:14;;;;;;;6.67;6.17;;;8.30;99.90;;;;;;5078804;28;20250;-77
2021/05/15 02:42:41;;;;;;;6.23;5.83;;;8.20;99.90;;;;;;5078809;28;20270;-77
2021/05/15 02:45:11;;;;;;;6.90;6.40;;;8.10;99.90;;;;;;5074830;28;20188;-77
2021/05/15 02:47:40;;;;;;;7.00;6.50;;;8.00;99.90;;;;;;5073646;28;20220;-76
2021/05/15 02:50:08;;;;;;;8.20;7.37;;;8.00;99.90;;;;;;5067309;28;20302;-77
2021/05/15 02:52:35;;;;;;;7.60;7.00;;;7.90;99.90;;;;;;5083438;28;20226;-77
2021/05/15 02:55:01;;;;;;;7.70;7.20;;;7.80;99.90;;;;;;5077430;28;20196;-76
2021/05/15 02:57:28;;;;;;;7.77;7.27;;;7.70;99.90;;;;;;5062401;28;20846;-77
2021/05/15 02:59:54;;;;;;;7.87;7.37;;;7.70;99.90;;;;;;5064578;28;20272;-75
2021/05/15 03:02:20;;;;;;;7.37;6.90;;;7.60;99.90;;;;;;5081792;28;20195;-75
2021/05/15 03:04:48;;;;;;;7.70;7.00;;;7.60;99.90;;;;;;5072378;28;20215;-75
2021/05/15 03:07:14;;;;;;;7.80;7.30;;;7.60;99.90;;;;;;5072675;28;20226;-74
2021/05/15 03:09:43;;;;;;;7.90;7.30;;;7.50;99.90;;;;;;5076007;28;20225;-74
2021/05/15 03:12:10;;;;;;;8.10;7.50;;;7.60;99.90;;;;;;5072834;28;20201;-74
2021/05/15 03:14:36;;;;;;;7.90;7.40;;;7.50;99.90;;;;;;5054473;28;20274;-74
2021/05/15 03:17:02;;;;;;;7.70;7.20;;;7.50;99.90;;;;;;5077695;28;20207;-74
2021/05/15 03:19:29;;;;;;;8.20;7.60;;;7.50;99.90;;;;;;5074176;28;20256;-74
2021/05/15 03:21:56;;;;;;;7.77;7.27;;;7.50;99.90;;;;;;5079987;28;20198;-73
2021/05/15 03:24:23;;;;;;;7.90;7.40;;;7.60;99.90;;;;;;5058032;28;20209;-74
2021/05/15 03:26:49;;;;;;;7.87;7.37;;;7.60;99.90;;;;;;5075508;28;20637;-74
2021/05/15 03:29:16;;;;;;;7.93;7.43;;;7.60;99.90;;;;;;5078040;28;20222;-74
2021/05/15 03:31:42;;;;;;;7.77;7.27;;;7.60;99.90;;;;;;5083336;28;20728;-74
2021/05/15 03:34:08;;;;;;;7.87;7.37;;;7.60;99.90;;;;;;5059498;28;20207;-75
2021/05/15 03:36:35;;;;;;;8.17;7.57;;;7.60;99.90;;;;;;5070973;28;20188;-74
2021/05/15 03:39:02;;;;;;;7.93;7.43;;;7.60;99.90;;;;;;5072134;28;20226;-74
2021/05/15 03:41:29;;;;;;;7.90;7.20;;;7.50;99.90;;;;;;5084437;28;20207;-74
2021/05/15 03:43:55;;;;;;;7.80;7.30;;;7.50;99.90;;;;;;5085566;28;20194;-74
2021/05/15 03:46:22;;;;;;;8.60;7.90;;;7.50;99.90;;;;;;5061123;28;20704;-74
2021/05/15 03:48:48;;;;;;;7.90;7.40;;;7.50;99.90;;;;;;5080305;28;20199;-74
2021/05/15 03:51:14;;;;;;;7.80;7.40;;;7.50;99.90;;;;;;5080337;28;20254;-75
2021/05/15 03:53:41;;;;;;;8.13;7.63;;;7.40;99.90;;;;;;5078524;28;20259;-77
2021/05/15 03:56:08;;;;;;;8.30;7.70;;;7.40;99.90;;;;;;5060206;28;20196;-77
2021/05/15 03:58:34;;;;;;;8.63;7.67;;;7.40;99.90;;;;;;5080793;28;20202;-80
2021/05/15 04:01:01;;;;;;;8.97;8.47;;;7.50;99.90;;;;;;5077152;28;20723;-78
2021/05/15 04:03:27;;;;;;;7.67;7.17;;;7.70;99.90;;;;;;5069227;28;20253;-77
2021/05/15 04:05:53;;;;;;;7.90;7.40;;;7.80;99.90;;;;;;5077902;28;20200;-78
2021/05/15 04:08:20;;;;;;;7.70;7.20;;;7.90;99.90;;;;;;5069914;28;20201;-79
2021/05/15 04:10:46;;;;;;;7.60;7.10;;;7.90;99.90;;;;;;5076681;28;20218;-77
2021/05/15 04:13:21;;;;;;;7.60;7.10;;;8.00;99.90;;;;;;5080795;28;20203;-76
2021/05/15 04:15:51;;;;;;;8.00;7.40;;;8.00;99.90;;;;;;5073824;28;20213;-78
2021/05/15 04:18:17;;;;;;;8.10;7.40;;;8.10;99.90;;;;;;5080570;28;20243;-78
2021/05/15 04:20:45;;;;;;;7.80;7.30;;;8.20;99.90;;;;;;5072269;28;20234;-78
2021/05/15 04:23:12;;;;;;;8.17;7.60;;;8.30;99.90;;;;;;5060377;28;20204;-78
2021/05/15 04:25:39;;;;;;;7.77;7.17;;;8.40;99.90;;;;;;5065344;28;20731;-78
2021/05/15 04:28:06;;;;;;;8.10;7.60;;;8.50;99.90;;;;;;5081218;28;20216;-78
2021/05/15 04:30:34;;;;;;;7.90;7.40;;;8.70;99.90;;;;;;5068580;28;20240;-77
2021/05/15 04:33:01;;;;;;;7.90;7.40;;;8.80;99.90;;;;;;5077881;28;20196;-78
2021/05/15 04:35:28;;;;;;;7.53;7.10;;;8.90;99.90;;;;;;5079894;28;20220;-78
2021/05/15 04:37:54;;;;;;;7.63;7.13;;;8.90;99.90;;;;;;5069245;28;20201;-78
2021/05/15 04:40:20;;;;;;;7.07;6.60;;;8.90;99.90;;;;;;5083770;28;20225;-78
2021/05/15 04:42:47;;;;;;;7.33;6.80;;;9.00;99.90;;;;;;5070740;28;20199;-75
2021/05/15 04:45:15;;;;;;;7.47;6.93;;;9.10;99.90;;;;;;5078291;28;20216;-75
2021/05/15 04:47:42;;;;;;;7.20;6.80;;;9.30;99.90;;;;;;5060096;28;20230;-76
2021/05/15 04:50:11;;;;;;;7.50;7.10;;;9.80;99.90;;;;;;5084701;28;20224;-77
2021/05/15 04:52:37;;;;;;;7.43;6.93;;;10.40;99.90;;;;;;5067160;28;20677;-79
2021/05/15 04:55:05;;;;;;;7.50;7.10;;;10.90;99.90;;;;;;5073395;28;20998;-78
2021/05/15 04:57:31;;;;;;;7.10;6.70;;;11.10;99.90;;;;;;5079368;28;20210;-77
2021/05/15 04:59:57;;;;;;;6.93;6.53;;;11.10;99.90;;;;;;5082963;28;20210;-79
2021/05/15 05:02:24;;;;;;;7.00;6.60;;;11.30;99.90;;;;;;5078784;28;20812;-78
2021/05/15 05:04:51;;;;;;;7.03;6.63;;;11.30;99.90;;;;;;5080072;28;20198;-78
2021/05/15 05:07:17;;;;;;;6.70;6.30;;;11.30;99.90;;;;;;5076854;28;20211;-78
2021/05/15 05:09:44;;;;;;;6.53;6.10;;;11.10;99.90;;;;;;5081162;28;20226;-78
2021/05/15 05:12:10;;;;;;;6.60;6.20;;;11.10;99.90;;;;;;5056992;28;20201;-78
2021/05/15 05:14:37;;;;;;;5.77;5.37;;;11.00;99.90;;;;;;5062389;28;20198;-78
2021/05/15 05:17:04;;;;;;;6.40;6.00;;;11.10;99.90;;;;;;5073007;28;20264;-77
2021/05/15 05:19:31;;;;;;;6.00;5.70;;;11.00;99.90;;;;;;5080657;28;20225;-80
2021/05/15 05:22:01;;;;;;;6.70;6.30;;;11.10;99.90;;;;;;5068248;28;20194;-81
2021/05/15 05:24:27;;;;;;;7.10;6.60;;;11.40;99.90;;;;;;5069853;28;20193;-77
2021/05/15 05:26:54;;;;;;;6.27;5.80;;;11.90;99.90;;;;;;5075596;28;20207;-78
2021/05/15 05:29:21;;;;;;;5.50;5.20;;;12.70;99.90;;;;;;5069123;28;20625;-78
2021/05/15 05:31:51;;;;;;;5.90;5.60;;;13.00;99.90;;;;;;5067381;28;20198;-75
2021/05/15 05:34:18;;;;;;;4.90;4.70;;;13.10;99.90;;;;;;5075988;28;20601;-76
2021/05/15 05:36:44;;;;;;;5.17;4.87;;;13.00;99.90;;;;;;5079638;28;20191;-76
2021/05/15 05:39:13;;;;;;;5.10;4.80;;;13.20;99.90;;;;;;5078250;28;20814;-77
2021/05/15 05:41:40;;;;;;;4.80;4.60;;;13.60;99.90;;;;;;5070544;28;20200;-76
2021/05/15 05:44:07;;;;;;;6.07;5.47;;;14.30;99.90;;;;;;5077648;28;20200;-81
2021/05/15 05:46:34;;;;;;;5.30;4.90;;;14.80;99.90;;;;;;5074064;28;20207;-77
2021/05/15 05:49:00;;;;;;;4.30;4.00;;;15.30;99.90;;;;;;5062804;28;20251;-76
2021/05/15 05:51:27;;;;;;;4.63;4.40;;;15.20;99.90;;;;;;5076419;28;20201;-77
2021/05/15 05:53:53;;;;;;;3.90;3.60;;;14.90;99.90;;;;;;5060338;28;20198;-77
2021/05/15 05:56:20;;;;;;;6.00;5.70;;;14.50;99.90;;;;;;5076040;28;20218;-77
2021/05/15 05:58:47;;;;;;;5.60;5.30;;;14.30;99.90;;;;;;5068354;28;20549;-75
2021/05/15 06:01:14;;;;;;;5.63;5.33;;;14.20;99.90;;;;;;5077770;28;20202;-76
2021/05/15 06:03:40;;;;;;;4.93;4.60;;;14.60;99.90;;;;;;5055874;28;20202;-76
2021/05/15 06:06:07;;;;;;;6.17;5.77;;;15.20;99.90;;;;;;5080159;28;20195;-77
2021/05/15 06:08:34;;;;;;;5.10;4.80;;;15.70;99.90;;;;;;5078185;28;20201;-76
2021/05/15 06:11:00;;;;;;;3.10;3.00;;;15.80;99.90;;;;;;5080500;28;20211;-76
2021/05/15 06:13:27;;;;;;;3.60;3.30;;;15.70;99.90;;;;;;5077673;28;20201;-76
2021/05/15 06:15:54;;;;;;;3.50;3.30;;;15.90;99.90;;;;;;5079650;28;20198;-77
2021/05/15 06:18:20;;;;;;;3.30;3.10;;;15.70;99.90;;;;;;5053586;28;20222;-76
2021/05/15 06:20:47;;;;;;;6.37;6.00;;;15.70;99.90;;;;;;5069473;28;20217;-76
2021/05/15 06:23:14;;;;;;;5.97;5.67;;;15.70;99.90;;;;;;5079492;28;20198;-76
2021/05/15 06:25:41;;;;;;;5.57;5.27;;;15.40;99.90;;;;;;5079186;28;20195;-76
2021/05/15 06:28:07;;;;;;;5.70;5.30;;;15.80;99.90;;;;;;5074634;28;20223;-76
2021/05/15 06:30:35;;;;;;;6.20;5.90;;;16.10;99.90;;;;;;5082194;28;20571;-77
2021/05/15 06:33:01;;;;;;;6.10;5.80;;;16.40;99.90;;;;;;5077839;28;20196;-76
2021/05/15 06:35:28;;;;;;;5.57;5.27;;;16.60;99.90;;;;;;5077318;28;20192;-77
2021/05/15 06:37:55;;;;;;;6.33;6.03;;;16.70;99.90;;;;;;5079131;28;20189;-76
2021/05/15 06:40:21;;;;;;;5.43;5.00;;;16.50;99.90;;;;;;5071850;28;20225;-77
2021/05/15 06:42:47;;;;;;;3.47;3.23;;;16.40;99.90;;;;;;5083465;28;20774;-77
2021/05/15 06:45:14;;;;;;;4.53;4.23;;;16.40;99.90;;;;;;5078371;28;20197;-77
2021/05/15 06:47:41;;;;;;;3.53;3.33;;;16.50;99.90;;;;;;5058841;28;20215;-77
2021/05/15 06:50:09;;;;;;;6.13;5.80;;;16.50;99.90;;;;;;5081496;28;20214;-76
2021/05/15 06:52:35;;;;;;;6.10;5.70;;;16.30;99.90;;;;;;5060368;28;20310;-76
2021/05/15 06:55:02;;;;;;;5.90;5.60;;;16.30;99.90;;;;;;5063757;28;20749;-76
2021/05/15 06:57:29;;;;;;;5.70;5.40;;;16.30;99.90;;;;;;5070614;28;20198;-76
2021/05/15 06:59:55;;;;;;;6.17;5.70;;;16.30;99.90;;;;;;5075913;28;20718;-76
2021/05/15 07:02:21;;;;;;;5.83;5.47;;;16.30;99.90;;;;;;5074592;28;20194;-76
2021/05/15 07:04:50;;;;;;;6.20;5.90;;;16.20;99.90;;;;;;5075887;28;20218;-76
2021/05/15 07:07:16;;;;;;;6.30;5.83;;;16.30;99.90;;;;;;5078276;28;20214;-76
2021/05/15 07:09:43;;;;;;;5.70;5.40;;;16.50;99.90;;;;;;5074358;28;20223;-76
2021/05/15 07:12:09;;;;;;;6.50;6.00;;;16.70;99.90;;;;;;5079335;28;20197;-76
2021/05/15 07:14:35;;;;;;;6.00;5.60;;;16.40;99.90;;;;;;5076062;28;20199;-76
2021/05/15 07:17:02;;;;;;;6.47;6.07;;;16.50;99.90;;;;;;5067446;28;20200;-75
2021/05/15 07:19:28;;;;;;;1.67;1.57;;;16.70;99.90;;;;;;5058530;28;20655;-76
2021/05/15 07:21:55;;;;;;;2.03;1.70;;;16.80;99.90;;;;;;5085790;28;20201;-76
2021/05/15 07:24:22;;;;;;;4.13;3.90;;;17.30;99.90;;;;;;5065005;28;20287;-76
2021/05/15 07:26:48;;;;;;;3.03;2.07;;;17.60;99.90;;;;;;5062607;28;20214;-76
2021/05/15 07:29:15;;;;;;;4.17;3.97;;;17.60;99.90;;;;;;5064212;28;20570;-76
2021/05/15 07:31:41;;;;;;;2.47;2.33;;;17.40;99.90;;;;;;5077571;28;20263;-78
2021/05/15 07:34:07;;;;;;;1.50;1.40;;;17.20;99.90;;;;;;5072781;28;20198;-77
2021/05/15 07:36:33;;;;;;;5.20;4.90;;;17.20;99.90;;;;;;5084569;28;20273;-79
2021/05/15 07:39:01;;;;;;;1.60;1.50;;;17.40;99.90;;;;;;5080603;28;20209;-76
2021/05/15 07:41:27;;;;;;;6.47;6.07;;;17.70;99.90;;;;;;5080784;28;20203;-76
2021/05/15 07:43:54;;;;;;;6.30;5.90;;;18.00;99.90;;;;;;5083399;28;20661;-76
2021/05/15 07:46:20;;;;;;;3.40;3.20;;;17.90;99.90;;;;;;5063361;28;20220;-75
2021/05/15 07:48:47;;;;;;;4.10;3.90;;;17.90;99.90;;;;;;5079592;28;20251;-76
2021/05/15 07:51:19;;;;;;;6.20;5.80;;;18.20;99.90;;;;;;5080654;28;20222;-76
2021/05/15 07:53:46;;;;;;;5.90;5.40;;;18.20;99.90;;;;;;5078614;28;20202;-76
2021/05/15 07:56:13;;;;;;;4.50;4.20;;;18.00;99.90;;;;;;5070607;28;20228;-76
2021/05/15 07:58:40;;;;;;;6.40;6.00;;;17.90;99.90;;;;;;5058938;28;20666;-76
2021/05/15 08:01:06;;;;;;;6.53;6.13;;;17.90;99.90;;;;;;5083700;28;20217;-76
2021/05/15 08:03:32;;;;;;;5.50;5.13;;;17.70;99.90;;;;;;5086166;28;20197;-76
2021/05/15 08:05:59;;;;;;;5.47;5.13;;;17.70;99.90;;;;;;5083435;28;20209;-76
2021/05/15 08:08:25;;;;;;;5.80;5.40;;;17.90;99.90;;;;;;5079337;28;20249;-76
2021/05/15 08:10:52;;;;;;;6.00;5.70;;;17.90;99.90;;;;;;5078207;28;20283;-76
2021/05/15 08:13:19;;;;;;;6.37;5.80;;;18.00;99.90;;;;;;5081664;28;20197;-76
2021/05/15 08:15:45;;;;;;;5.50;5.10;;;18.20;99.90;;;;;;5082270;28;20250;-76
2021/05/15 08:18:12;;;;;;;6.00;5.70;;;18.30;99.90;;;;;;5079080;28;20683;-76
2021/05/15 08:20:39;;;;;;;6.07;5.77;;;18.50;99.90;;;;;;5099372;22;20240;-76
2021/05/15 08:23:05;;;;;;;5.77;5.47;;;18.30;99.90;;;;;;5092106;28;20194;-77
2021/05/15 08:25:31;;;;;;;6.00;5.60;;;18.10;99.90;;;;;;5089225;28;20568;-76
2021/05/15 08:28:00;;;;;;;5.80;5.40;;;17.90;99.90;;;;;;5076317;28;20217;-76
2021/05/15 08:30:28;;;;;;;5.90;5.50;;;17.80;99.90;;;;;;5090671;28;20281;-76
2021/05/15 08:32:56;;;;;;;6.13;5.77;;;17.80;99.90;;;;;;5078763;28;20202;-76
2021/05/15 08:35:24;;;;;;;5.90;5.50;;;18.00;99.90;;;;;;5071351;28;20681;-77
2021/05/15 08:37:52;;;;;;;5.93;5.40;;;18.10;99.90;;;;;;5072727;28;20205;-76
2021/05/15 08:40:19;;;;;;;5.80;5.40;;;18.10;99.90;;;;;;5054984;28;20233;-77
2021/05/15 08:42:47;;;;;;;5.37;5.00;;;18.10;99.90;;;;;;5056169;28;20686;-76
2021/05/15 08:45:15;;;;;;;5.40;5.10;;;18.10;99.90;;;;;;5073275;28;20193;-76
2021/05/15 08:47:44;;;;;;;5.70;5.30;;;18.30;99.90;;;;;;5073641;28;20207;-76
2021/05/15 08:50:13;;;;;;;5.90;5.50;;;18.40;99.90;;;;;;5061609;28;20284;-76
2021/05/15 08:52:42;;;;;;;5.80;5.50;;;18.50;99.90;;;;;;5061086;28;20199;-77
2021/05/15 08:55:11;;;;;;;5.77;5.47;;;18.50;99.90;;;;;;5073639;28;20202;-76
2021/05/15 08:57:38;;;;;;;5.43;5.13;;;18.70;99.90;;;;;;5073022;28;20216;-75
2021/05/15 09:00:10;;;;;;;5.50;5.20;;;18.90;99.90;;;;;;5072301;28;20223;-76
2021/05/15 09:02:37;;;;;;;5.73;5.33;;;19.00;99.90;;;;;;5059633;28;20247;-77
2021/05/15 09:05:06;;;;;;;5.80;5.50;;;19.00;99.90;;;;;;5088175;28;20570;-77
2021/05/15 09:07:32;;;;;;;5.97;5.57;;;19.30;99.90;;;;;;5056164;28;20231;-77
2021/05/15 09:09:58;;;;;;;5.83;5.53;;;19.50;99.90;;;;;;5086474;28;20224;-76
2021/05/15 09:12:25;;;;;;;6.30;5.70;;;19.60;99.90;;;;;;5090830;28;20200;-77
2021/05/15 09:14:59;;;;;;;5.90;5.53;;;19.70;99.90;;;;;;5077417;28;20197;-77
2021/05/15 09:17:25;;;;;;;5.83;5.43;;;19.60;99.90;;;;;;5075350;28;20184;-77
2021/05/15 09:19:53;;;;;;;5.90;5.60;;;19.60;99.90;;;;;;5075912;28;20224;-77
2021/05/15 09:22:26;;;;;;;6.17;5.70;;;19.70;99.90;;;;;;5070169;28;20207;-76
2021/05/15 09:24:53;;;;;;;5.90;5.50;;;19.50;99.90;;;;;;5071504;28;20247;-76
2021/05/15 09:27:31;;;;;;;6.47;5.63;;;19.40;99.90;;;;;;5057392;28;20225;-77
2021/05/15 09:29:57;;;;;;;5.60;5.30;;;19.50;99.90;;;;;;5075416;28;20223;-77
2021/05/15 09:32:29;;;;;;;5.97;5.60;;;19.80;99.90;;;;;;5076444;28;20316;-77
2021/05/15 09:34:55;;;;;;;5.73;5.30;;;20.10;99.90;;;;;;5054865;28;20209;-77
2021/05/15 09:37:30;;;;;;;5.67;5.27;;;20.20;99.90;;;;;;5076622;28;20196;-76
2021/05/15 09:39:57;;;;;;;3.83;3.53;;;20.60;99.90;;;;;;5058518;28;20723;-77
2021/05/15 09:42:23;;;;;;;3.73;3.37;;;20.70;99.90;;;;;;5057528;28;20241;-76
2021/05/15 09:44:50;;;;;;;3.40;3.20;;;20.50;99.90;;;;;;5061067;28;20747;-76
2021/05/15 09:47:18;;;;;;;3.50;3.30;;;20.50;99.90;;;;;;5059144;28;20617;-77
2021/05/15 09:49:45;;;;;;;4.53;3.23;;;20.30;99.90;;;;;;5075406;28;20232;-76
2021/05/15 09:52:11;;;;;;;3.33;3.13;;;20.20;99.90;;;;;;5058309;28;20197;-77
2021/05/15 09:54:40;;;;;;;3.60;3.40;;;20.50;99.90;;;;;;5056597;28;20227;-78
2021/05/15 09:57:08;;;;;;;3.50;3.33;;;21.10;99.90;;;;;;5072617;28;20190;-77
2021/05/15 09:59:36;;;;;;;3.80;3.60;;;21.60;99.90;;;;;;5074579;28;20268;-79
2021/05/15 10:02:05;;;;;;;2.20;2.00;;;21.70;99.90;;;;;;5056856;28;20202;-77
2021/05/15 10:04:32;;;;;;;3.77;3.47;;;21.80;99.40;;;;;;5073616;28;20198;-76
2021/05/15 10:06:59;;;;;;;3.90;3.70;;;22.30;99.90;;;;;;5066296;28;20290;-77
2021/05/15 10:09:31;;;;;;;1.27;1.27;;;22.10;99.30;;;;;;5075603;28;20198;-77
2021/05/15 10:11:59;;;;;;;2.90;2.70;;;22.00;99.40;;;;;;5069743;28;20324;-78
2021/05/15 10:14:26;;;;;;;3.10;2.90;;;22.10;99.90;;;;;;5082721;28;20199;-77
2021/05/15 10:16:52;;;;;;;3.63;3.30;;;22.10;99.40;;;;;;5054697;28;20195;-76
2021/05/15 10:19:20;;;;;;;1.70;1.60;;;22.40;97.80;;;;;;5056440;28;20202;-78
2021/05/15 10:21:47;;;;;;;2.20;2.00;;;22.30;97.30;;;;;;5073981;28;20270;-76
2021/05/15 10:24:19;;;;;;;4.33;2.53;;;22.00;97.60;;;;;;5073689;28;20194;-77
2021/05/15 10:26:54;;;;;;;2.50;1.73;;;21.70;96.60;;;;;;5074151;28;20210;-77
2021/05/15 10:29:21;;;;;;;4.80;4.50;;;21.20;98.10;;;;;;5050437;28;20198;-76
2021/05/15 10:31:53;;;;;;;6.13;5.73;;;21.10;98.70;;;;;;5073708;28;20202;-76
2021/05/15 10:34:30;;;;;;;5.80;5.40;;;20.60;98.00;;;;;;5074478;28;20583;-77
2021/05/15 10:36:57;;;;;;;5.20;4.90;;;20.50;98.90;;;;;;5074311;28;20194;-78
2021/05/15 10:39:27;;;;;;;5.20;4.90;;;20.40;99.00;;;;;;5056912;28;20209;-76
2021/05/15 10:41:54;;;;;;;5.60;5.20;;;20.10;98.60;;;;;;5074077;28;20265;-76
2021/05/15 10:44:21;;;;;;;5.40;5.10;;;20.00;99.70;;;;;;5072148;28;20203;-76
2021/05/15 10:46:49;;;;;;;5.50;5.20;;;20.00;99.50;;;;;;5083160;28;20217;-77
2021/05/15 10:49:20;;;;;;;5.70;5.40;;;20.10;99.70;;;;;;5073649;28;20197;-77
2021/05/15 10:51:48;;;;;;;6.03;5.67;;;20.20;99.80;;;;;;5074350;28;20202;-77
2021/05/15 10:54:17;;;;;;;5.60;5.30;;;19.90;99.70;;;;;;5073836;28;20196;-76
2021/05/15 10:56:49;;;;;;;6.00;5.57;;;19.80;99.40;;;;;;5057360;28;20216;-77
2021/05/15 10:59:19;;;;;;;5.60;5.20;;;19.80;98.90;;;;;;5078085;28;20223;-76
2021/05/15 11:01:50;;;;;;;5.77;5.47;;;19.70;99.40;;;;;;5058847;28;20196;-77
2021/05/15 11:04:27;;;;;;;7.70;6.20;;;19.50;99.90;;;;;;5071439;28;20207;-78
2021/05/15 11:07:03;;;;;;;7.10;6.60;;;18.60;99.80;;;;;;5063129;28;20317;-77
2021/05/15 11:09:30;;;;;;;6.60;6.10;;;17.60;99.90;;;;;;5061558;28;20205;-77
2021/05/15 11:12:05;;;;;;;6.73;6.13;;;17.00;99.90;;;;;;5079796;28;20194;-77
2021/05/15 11:14:32;;;;;;;7.37;6.77;;;16.30;99.90;;;;;;5079007;28;20684;-77
2021/05/15 11:17:08;;;;;;;7.60;6.93;;;16.00;99.90;;;;;;5062326;28;20346;-76
2021/05/15 11:19:35;;;;;;;8.17;7.43;;;16.00;99.90;;;;;;5074011;28;20203;-76
2021/05/15 11:22:02;;;;;;;7.87;7.17;;;16.20;99.90;;;;;;5065102;28;20206;-77
2021/05/15 11:24:29;;;;;;;8.43;7.67;;;16.60;99.90;;;;;;5062646;28;20205;-78
2021/05/15 11:26:57;;;;;;;6.40;6.00;;;17.20;99.90;;;;;;5057228;28;20230;-77
2021/05/15 11:29:32;;;;;;;5.50;5.10;;;17.50;99.90;;;;;;5078634;28;20212;-77
2021/05/15 11:32:06;;;;;;;5.57;5.17;;;17.80;99.90;;;;;;5085316;28;20330;-77
2021/05/15 11:34:32;;;;;;;5.90;5.50;;;18.00;99.90;;;;;;5065750;28;20205;-77
2021/05/15 11:36:58;;;;;;;5.83;5.47;;;18.20;99.90;;;;;;5072128;28;20193;-78
2021/05/15 11:39:25;;;;;;;6.40;5.90;;;18.20;99.90;;;;;;5049597;28;20252;-76
2021/05/15 11:42:02;;;;;;;6.30;5.90;;;18.40;99.90;;;;;;5061969;28;20199;-76
2021/05/15 11:44:29;;;;;;;6.37;5.87;;;18.50;99.90;;;;;;5060214;28;20232;-76
2021/05/15 11:46:55;;;;;;;6.90;6.30;;;18.40;99.90;;;;;;5079227;28;20234;-77
2021/05/15 11:49:23;;;;;;;6.70;6.20;;;18.30;99.90;;;;;;5079026;28;20206;-76
2021/05/15 11:51:59;;;;;;;7.60;6.10;;;18.10;99.90;;;;;;5076621;28;20230;-76
2021/05/15 11:54:25;;;;;;;5.90;5.50;;;17.90;99.90;;;;;;5061118;28;20198;-77
2021/05/15 11:56:52;;;;;;;5.77;5.37;;;17.90;99.90;;;;;;5060871;28;20209;-77
2021/05/15 11:59:19;;;;;;;5.63;5.33;;;17.90;99.90;;;;;;5057980;28;20429;-77
2021/05/15 12:01:46;;;;;;;4.93;4.70;;;17.80;99.90;;;;;;5060959;28;20212;-76
2021/05/15 12:04:15;;;;;;;5.13;4.83;;;17.70;99.90;;;;;;5077780;28;20733;-77
2021/05/15 12:06:43;;;;;;;5.30;5.00;;;17.50;99.90;;;;;;5080930;28;20619;-77
2021/05/15 12:09:13;;;;;;;5.30;5.00;;;17.30;99.90;;;;;;5067004;28;20212;-77
2021/05/15 12:11:40;;;;;;;5.20;4.90;;;17.30;99.90;;;;;;5078809;28;20626;-77
2021/05/15 12:14:06;;;;;;;5.57;5.17;;;17.20;99.90;;;;;;5071092;28;20228;-77
2021/05/15 12:16:37;;;;;;;5.33;4.97;;;17.30;99.90;;;;;;5044416;28;20650;-75
2021/05/15 12:19:05;;;;;;;5.20;4.80;;;17.40;99.90;;;;;;5055710;28;20209;-77
2021/05/15 12:21:32;;;;;;;5.17;4.80;;;17.60;99.90;;;;;;5072940;28;20222;-78
2021/05/15 12:24:03;;;;;;;5.50;5.20;;;17.90;99.90;;;;;;5074208;28;20197;-77
2021/05/15 12:26:29;;;;;;;5.47;5.17;;;18.30;99.90;;;;;;5054032;28;20423;-77
2021/05/15 12:28:59;;;;;;;5.47;5.17;;;18.30;99.90;;;;;;5072063;28;20619;-77
2021/05/15 12:31:27;;;;;;;5.60;5.20;;;18.50;99.90;;;;;;5068566;28;20222;-78
2021/05/15 12:33:56;;;;;;;6.07;5.50;;;18.60;99.90;;;;;;5081568;28;20215;-77
2021/05/15 12:36:22;;;;;;;5.83;5.33;;;18.60;99.90;;;;;;5082208;28;20558;-78
2021/05/15 12:38:51;;;;;;;5.90;5.47;;;18.90;99.90;;;;;;5052793;28;20214;-76
2021/05/15 12:41:21;;;;;;;5.67;5.17;;;19.10;99.90;;;;;;5054583;28;20219;-77
2021/05/15 12:43:48;;;;;;;5.20;4.83;;;19.10;99.90;;;;;;5078576;28;20196;-78
2021/05/15 12:46:16;;;;;;;4.37;4.10;;;19.00;99.90;;;;;;5084937;28;20684;-77
2021/05/15 12:48:55;;;;;;;4.50;4.20;;;19.30;99.90;;;;;;5069609;28;20226;-78
2021/05/15 12:51:28;;;;;;;5.63;5.23;;;19.10;99.90;;;;;;5072661;28;20736;-77